Time;durP1;ratioP1;P1;durP2;ratioP2;P2;SDS_P1;SDS_P2;PMS_P1;PMS_P2;Temp;Humidity;BMP_temperature;BMP_pressure;BME280_temperature;BME280_humidity;BME280_pressure;Samples;Min_cycle;Max_cycle;Signal;HPM_P1;HPM_P2
2022/10/06 00:01:47;;;;;;;6.65;1.70;;;14.20;64.10;;;;;;5055254;28;20040;-74
2022/10/06 00:04:14;;;;;;;8.23;1.67;;;14.20;64.20;;;;;;5045957;28;20043;-74
2022/10/06 00:06:40;;;;;;;4.82;1.35;;;14.10;64.00;;;;;;5048158;28;20017;-74
2022/10/06 00:09:06;;;;;;;7.65;1.88;;;14.10;64.00;;;;;;5047364;28;20069;-75
2022/10/06 00:11:34;;;;;;;5.53;1.35;;;14.00;63.80;;;;;;5039545;28;20037;-74
2022/10/06 00:14:00;;;;;;;5.47;2.22;;;14.00;63.90;;;;;;5048949;28;20021;-74
2022/10/06 00:16:25;;;;;;;6.72;2.10;;;14.00;63.90;;;;;;5047598;28;20047;-75
2022/10/06 00:18:52;;;;;;;5.15;1.65;;;13.90;63.70;;;;;;5044782;28;20021;-75
2022/10/06 00:21:17;;;;;;;5.78;1.88;;;13.90;63.80;;;;;;5047312;28;20107;-75
2022/10/06 00:23:43;;;;;;;6.78;3.03;;;13.90;63.80;;;;;;5048184;28;20033;-77
2022/10/06 00:26:15;;;;;;;8.25;2.50;;;13.80;64.10;;;;;;5039999;28;20038;-76
2022/10/06 00:28:47;;;;;;;4.93;1.95;;;13.80;63.60;;;;;;5027080;28;20036;-75
2022/10/06 00:31:15;;;;;;;7.80;2.28;;;13.80;63.70;;;;;;5029607;28;20513;-74
2022/10/06 00:33:41;;;;;;;6.25;1.67;;;13.80;63.70;;;;;;5041661;28;20035;-74
2022/10/06 00:36:10;;;;;;;6.05;2.03;;;13.80;63.70;;;;;;5040093;28;20044;-75
2022/10/06 00:38:38;;;;;;;4.60;1.33;;;13.80;63.80;;;;;;5045525;28;20248;-75
2022/10/06 00:41:12;;;;;;;5.55;1.75;;;13.70;63.70;;;;;;5047859;28;20455;-74
2022/10/06 00:43:42;;;;;;;6.68;2.10;;;13.70;63.70;;;;;;5038762;28;20035;-74
2022/10/06 00:46:20;;;;;;;6.13;3.17;;;13.70;63.70;;;;;;5043850;28;20036;-75
2022/10/06 00:48:54;;;;;;;6.43;2.70;;;13.70;63.80;;;;;;5033782;28;20025;-74
2022/10/06 00:51:21;;;;;;;7.65;2.15;;;13.60;63.60;;;;;;5029479;28;20392;-75
2022/10/06 00:53:48;;;;;;;9.70;2.83;;;13.60;63.60;;;;;;5046163;28;20416;-74
2022/10/06 00:56:15;;;;;;;7.80;2.22;;;13.60;63.70;;;;;;5046116;28;20056;-73
2022/10/06 00:58:41;;;;;;;8.95;2.92;;;13.60;63.70;;;;;;5035271;28;20033;-74
2022/10/06 01:01:10;;;;;;;7.85;2.95;;;13.50;63.60;;;;;;5041726;28;20094;-74
2022/10/06 01:03:42;;;;;;;7.53;2.00;;;13.50;63.60;;;;;;5054552;28;20075;-75
2022/10/06 01:06:09;;;;;;;9.48;2.58;;;13.50;63.60;;;;;;5046642;28;20041;-74
2022/10/06 01:08:36;;;;;;;8.35;2.35;;;13.40;63.50;;;;;;5037516;28;20029;-74
2022/10/06 01:11:08;;;;;;;6.70;2.33;;;13.40;63.60;;;;;;5051741;28;20134;-75
2022/10/06 01:13:34;;;;;;;8.90;2.38;;;13.40;63.60;;;;;;5048002;28;20033;-73
2022/10/06 01:16:22;;;;;;;6.78;2.45;;;13.40;63.60;;;;;;5042121;28;20482;-74
2022/10/06 01:18:51;;;;;;;7.43;2.13;;;13.30;63.50;;;;;;5043559;28;20029;-75
2022/10/06 01:21:30;;;;;;;8.75;2.40;;;13.30;63.50;;;;;;5035950;28;20038;-75
2022/10/06 01:23:57;;;;;;;8.38;3.35;;;13.30;63.50;;;;;;5045205;28;20025;-74
2022/10/06 01:26:26;;;;;;;9.43;2.75;;;13.20;63.40;;;;;;5041004;28;20090;-74
2022/10/06 01:28:52;;;;;;;8.40;2.90;;;13.20;63.40;;;;;;5043199;28;20029;-74
2022/10/06 01:31:19;;;;;;;7.45;2.53;;;13.20;63.40;;;;;;5014984;28;20055;-73
2022/10/06 01:33:50;;;;;;;10.30;3.75;;;13.20;63.40;;;;;;5029976;28;20060;-74
2022/10/06 01:36:17;;;;;;;7.88;2.38;;;13.20;63.50;;;;;;5046657;28;20048;-74
2022/10/06 01:38:43;;;;;;;7.57;2.30;;;13.20;63.50;;;;;;5046065;28;20191;-75
2022/10/06 01:41:09;;;;;;;7.80;2.40;;;13.20;63.50;;;;;;5047318;28;20052;-74
2022/10/06 01:43:36;;;;;;;9.77;2.88;;;13.10;63.30;;;;;;5028149;28;20029;-74
2022/10/06 01:46:04;;;;;;;11.77;2.42;;;13.10;63.40;;;;;;5032074;28;20033;-74
2022/10/06 01:48:30;;;;;;;8.70;3.08;;;13.10;63.40;;;;;;5040259;28;20055;-74
2022/10/06 01:50:58;;;;;;;6.22;2.00;;;13.10;63.50;;;;;;5048102;28;20032;-74
2022/10/06 01:53:24;;;;;;;8.93;2.75;;;13.00;63.40;;;;;;5040281;28;20035;-73
2022/10/06 01:55:50;;;;;;;8.73;2.33;;;13.00;63.40;;;;;;5054302;28;20057;-75
2022/10/06 01:58:20;;;;;;;10.90;2.67;;;13.00;63.50;;;;;;5031839;28;20032;-74
2022/10/06 02:00:49;;;;;;;7.30;2.55;;;13.00;63.50;;;;;;5045501;28;20546;-73
2022/10/06 02:03:16;;;;;;;8.32;2.63;;;13.00;63.50;;;;;;5060873;28;20044;-74
2022/10/06 02:05:42;;;;;;;6.90;2.90;;;13.00;63.50;;;;;;5043934;28;20028;-74
2022/10/06 02:08:11;;;;;;;7.28;1.88;;;13.00;63.60;;;;;;5049074;28;20409;-74
2022/10/06 02:10:38;;;;;;;6.55;2.78;;;13.00;63.60;;;;;;5048839;28;20036;-73
2022/10/06 02:13:08;;;;;;;9.05;2.30;;;13.00;63.70;;;;;;5043511;28;20029;-74
2022/10/06 02:15:35;;;;;;;10.60;2.92;;;13.00;63.70;;;;;;5045237;28;20070;-74
2022/10/06 02:18:01;;;;;;;7.60;2.28;;;12.90;63.50;;;;;;5054898;28;20037;-73
2022/10/06 02:20:27;;;;;;;8.30;2.40;;;12.90;63.60;;;;;;5041061;28;20037;-74
2022/10/06 02:22:53;;;;;;;7.85;2.35;;;12.90;63.60;;;;;;5048965;28;20037;-74
2022/10/06 02:25:19;;;;;;;9.88;3.72;;;12.80;63.50;;;;;;5031427;28;20063;-74
2022/10/06 02:27:45;;;;;;;8.75;2.53;;;12.80;63.50;;;;;;5029382;28;20127;-74
2022/10/06 02:30:13;;;;;;;7.03;2.90;;;12.80;63.50;;;;;;5043694;28;20085;-74
2022/10/06 02:32:41;;;;;;;7.35;2.90;;;12.70;63.40;;;;;;5041861;28;20033;-74
2022/10/06 02:35:10;;;;;;;10.02;3.05;;;12.70;63.40;;;;;;5045152;28;20041;-73
2022/10/06 02:37:36;;;;;;;7.85;2.65;;;12.60;63.30;;;;;;5047632;28;20021;-73
2022/10/06 02:40:02;;;;;;;7.07;2.47;;;12.60;63.30;;;;;;5050051;28;20029;-73
2022/10/06 02:42:30;;;;;;;7.00;2.83;;;12.60;63.40;;;;;;5043692;28;20026;-74
2022/10/06 02:44:57;;;;;;;7.63;2.03;;;12.50;63.30;;;;;;5035127;28;20051;-73
2022/10/06 02:47:23;;;;;;;7.90;2.85;;;12.50;63.60;;;;;;5047245;28;20032;-73
2022/10/06 02:49:52;;;;;;;6.07;2.03;;;12.40;63.50;;;;;;5047753;28;20033;-73
2022/10/06 02:52:19;;;;;;;4.88;2.15;;;12.40;63.60;;;;;;5044983;28;20084;-74
2022/10/06 02:54:45;;;;;;;4.63;2.08;;;12.40;63.60;;;;;;5046636;28;20504;-74
2022/10/06 02:57:14;;;;;;;8.48;2.60;;;12.30;63.50;;;;;;5049615;28;20041;-73
2022/10/06 02:59:41;;;;;;;7.18;1.85;;;12.30;63.50;;;;;;5051050;28;20025;-73
2022/10/06 03:02:08;;;;;;;7.38;2.13;;;12.20;63.40;;;;;;5053866;28;20032;-73
2022/10/06 03:04:35;;;;;;;5.85;2.13;;;12.10;63.30;;;;;;5053828;28;20043;-74
2022/10/06 03:07:01;;;;;;;4.55;1.85;;;12.10;63.40;;;;;;5030778;28;20075;-74
2022/10/06 03:09:32;;;;;;;4.40;2.00;;;12.00;63.30;;;;;;5056334;28;20035;-73
2022/10/06 03:11:58;;;;;;;10.52;3.25;;;12.00;63.30;;;;;;5053801;28;20113;-73
2022/10/06 03:14:33;;;;;;;6.50;2.55;;;12.00;63.40;;;;;;5048550;28;20044;-73
2022/10/06 03:17:00;;;;;;;5.45;2.30;;;11.90;63.30;;;;;;5046660;28;20044;-72
2022/10/06 03:19:28;;;;;;;5.78;2.05;;;11.90;63.40;;;;;;5031750;28;20099;-74
2022/10/06 03:21:54;;;;;;;7.82;2.40;;;11.80;63.20;;;;;;5049480;28;20039;-74
2022/10/06 03:24:25;;;;;;;6.85;2.30;;;11.80;63.20;;;;;;5025654;28;20033;-74
2022/10/06 03:26:57;;;;;;;5.72;2.00;;;11.70;63.10;;;;;;5048402;28;20412;-74
2022/10/06 03:29:23;;;;;;;8.38;2.05;;;11.70;63.20;;;;;;5045707;28;20427;-75
2022/10/06 03:31:53;;;;;;;6.00;1.60;;;11.70;63.20;;;;;;5030208;28;20086;-74
2022/10/06 03:34:19;;;;;;;8.13;2.28;;;11.60;63.00;;;;;;5042795;28;20041;-75
2022/10/06 03:36:45;;;;;;;10.77;1.95;;;11.60;63.10;;;;;;5053749;28;20055;-74
2022/10/06 03:39:12;;;;;;;5.45;1.90;;;11.60;63.10;;;;;;5051087;28;20035;-75
2022/10/06 03:41:39;;;;;;;11.15;1.90;;;11.50;63.00;;;;;;5031366;28;20033;-75
2022/10/06 03:44:07;;;;;;;8.73;2.90;;;11.50;63.00;;;;;;5051574;28;20043;-74
2022/10/06 03:46:37;;;;;;;6.70;2.08;;;11.40;62.90;;;;;;5050801;28;20025;-73
2022/10/06 03:49:06;;;;;;;4.32;2.00;;;11.30;62.70;;;;;;5027729;28;20036;-75
2022/10/06 03:51:40;;;;;;;8.82;1.90;;;11.30;62.80;;;;;;5051481;28;20381;-74
2022/10/06 03:54:11;;;;;;;4.78;1.63;;;11.30;62.80;;;;;;5046597;28;20063;-74
2022/10/06 03:56:41;;;;;;;5.90;2.10;;;11.20;62.70;;;;;;5051974;28;20055;-73
2022/10/06 03:59:12;;;;;;;4.78;1.70;;;11.20;62.80;;;;;;5052190;28;20492;-74
2022/10/06 04:01:42;;;;;;;6.65;1.67;;;11.10;62.60;;;;;;5043429;28;20030;-74
2022/10/06 04:04:10;;;;;;;8.10;2.42;;;11.10;62.70;;;;;;5047983;28;20421;-74
2022/10/06 04:06:38;;;;;;;6.40;1.67;;;11.10;62.70;;;;;;5051342;28;20481;-74
2022/10/06 04:09:10;;;;;;;7.13;2.03;;;11.00;62.60;;;;;;5050636;28;20043;-74
2022/10/06 04:11:38;;;;;;;6.38;1.80;;;11.00;62.60;;;;;;5042224;28;20562;-74
2022/10/06 04:14:10;;;;;;;7.97;2.13;;;10.90;62.50;;;;;;5048825;28;20435;-75
2022/10/06 04:16:42;;;;;;;8.63;1.40;;;10.90;62.60;;;;;;5049228;28;20442;-74
2022/10/06 04:19:11;;;;;;;7.55;1.98;;;10.90;63.20;;;;;;5030034;28;20037;-73
2022/10/06 04:21:46;;;;;;;5.93;1.63;;;10.80;62.50;;;;;;5051354;28;20029;-74
2022/10/06 04:24:17;;;;;;;6.75;1.80;;;10.80;62.50;;;;;;5041931;28;20039;-74
2022/10/06 04:26:47;;;;;;;3.83;1.45;;;10.80;62.50;;;;;;5046867;28;20060;-74
2022/10/06 04:29:14;;;;;;;9.38;1.95;;;10.70;62.40;;;;;;5034559;28;20061;-73
2022/10/06 04:31:44;;;;;;;4.93;2.00;;;10.70;62.40;;;;;;5033249;28;20434;-73
2022/10/06 04:34:20;;;;;;;5.25;2.00;;;10.70;62.50;;;;;;5050667;28;20421;-74
2022/10/06 04:36:46;;;;;;;6.00;2.17;;;10.70;62.50;;;;;;5034508;28;20041;-74
2022/10/06 04:39:15;;;;;;;6.07;1.50;;;10.70;62.60;;;;;;5034182;28;20508;-75
2022/10/06 04:41:45;;;;;;;4.80;1.70;;;10.60;62.40;;;;;;5021303;28;20035;-74
2022/10/06 04:44:12;;;;;;;5.78;1.85;;;10.60;62.50;;;;;;5042308;28;20454;-73
2022/10/06 04:46:39;;;;;;;4.47;1.55;;;10.60;62.50;;;;;;5048228;28;20037;-73
2022/10/06 04:49:10;;;;;;;4.25;1.42;;;10.60;62.50;;;;;;5044358;28;20622;-74
2022/10/06 04:51:36;;;;;;;5.72;1.90;;;10.60;62.60;;;;;;5035546;28;20060;-74
2022/10/06 04:54:03;;;;;;;10.25;2.08;;;10.60;62.60;;;;;;5047853;28;20359;-74
2022/10/06 04:56:32;;;;;;;5.43;1.60;;;10.50;62.50;;;;;;5036545;28;20521;-74
2022/10/06 04:59:02;;;;;;;5.57;1.70;;;10.50;62.60;;;;;;5045894;28;20047;-74
2022/10/06 05:01:33;;;;;;;5.28;1.80;;;10.50;62.60;;;;;;5047863;28;20064;-73
2022/10/06 05:04:03;;;;;;;6.18;1.70;;;10.50;62.70;;;;;;5020907;28;20041;-73
2022/10/06 05:06:34;;;;;;;4.38;1.45;;;10.50;62.70;;;;;;5045495;28;20031;-73
2022/10/06 05:09:06;;;;;;;6.93;2.15;;;10.50;62.70;;;;;;5044649;28;20025;-74
2022/10/06 05:11:33;;;;;;;6.97;1.60;;;10.50;62.80;;;;;;5045515;28;20043;-74
2022/10/06 05:14:01;;;;;;;4.53;1.42;;;10.50;62.80;;;;;;5047263;28;20511;-75
2022/10/06 05:16:30;;;;;;;7.82;1.80;;;10.50;62.90;;;;;;5046158;28;20066;-74
2022/10/06 05:18:57;;;;;;;9.57;2.08;;;10.50;62.90;;;;;;5048504;28;20021;-76
2022/10/06 05:21:29;;;;;;;6.65;1.88;;;10.50;62.90;;;;;;5042943;28;20150;-77
2022/10/06 05:23:57;;;;;;;6.57;2.17;;;10.60;63.10;;;;;;5031577;28;20164;-75
2022/10/06 05:26:29;;;;;;;7.75;2.20;;;10.60;63.10;;;;;;5046092;28;20029;-77
2022/10/06 05:28:57;;;;;;;6.70;2.08;;;10.60;63.10;;;;;;5046701;28;20400;-74
2022/10/06 05:31:27;;;;;;;5.78;2.00;;;10.60;63.10;;;;;;5047782;28;20029;-77
2022/10/06 05:33:54;;;;;;;7.00;1.65;;;10.60;63.20;;;;;;5019376;28;20043;-76
2022/10/06 05:36:23;;;;;;;9.73;2.22;;;10.70;63.40;;;;;;5049115;28;20045;-77
2022/10/06 05:38:51;;;;;;;10.90;2.08;;;10.70;63.50;;;;;;5047835;28;20029;-73
2022/10/06 05:41:27;;;;;;;9.10;2.33;;;10.60;63.30;;;;;;5031682;28;20032;-78
2022/10/06 05:43:55;;;;;;;8.13;1.80;;;10.60;63.50;;;;;;5043285;28;20021;-75
2022/10/06 05:46:29;;;;;;;9.40;2.22;;;10.60;63.50;;;;;;5047160;28;20029;-77
2022/10/06 05:48:59;;;;;;;7.32;1.80;;;10.60;63.60;;;;;;5045359;28;20284;-76
2022/10/06 05:51:30;;;;;;;8.90;1.65;;;10.60;63.60;;;;;;5044364;28;20393;-79
2022/10/06 05:54:00;;;;;;;12.85;3.10;;;10.60;64.10;;;;;;5045375;28;20028;-74
2022/10/06 05:56:31;;;;;;;8.80;1.95;;;10.60;63.70;;;;;;5028568;28;20041;-74
2022/10/06 05:58:59;;;;;;;12.75;2.88;;;10.60;63.80;;;;;;5046321;28;20035;-74
2022/10/06 06:01:40;;;;;;;9.52;2.45;;;10.60;63.80;;;;;;5049394;28;20110;-77
2022/10/06 06:04:13;;;;;;;8.48;1.58;;;10.60;63.90;;;;;;5041765;28;20035;-77
2022/10/06 06:06:46;;;;;;;11.32;2.03;;;10.70;64.00;;;;;;5024873;28;20814;-77
2022/10/06 06:09:18;;;;;;;13.63;3.25;;;10.60;63.90;;;;;;5026161;28;20534;-77
2022/10/06 06:11:48;;;;;;;8.32;1.67;;;10.70;64.10;;;;;;5026392;28;20031;-77
2022/10/06 06:15:59;;;;;;;11.30;2.63;;;10.60;64.00;;;;;;5045765;28;20029;-77
2022/10/06 06:17:13;;;;;;;8.70;1.83;;;10.60;64.10;;;;;;5040618;28;20037;-76
2022/10/06 06:19:39;;;;;;;10.95;2.45;;;10.70;64.30;;;;;;5045302;28;20021;-76
2022/10/06 06:22:06;;;;;;;10.65;2.63;;;10.70;64.40;;;;;;5039871;28;20269;-77
2022/10/06 06:24:35;;;;;;;8.13;2.03;;;10.70;64.90;;;;;;5026969;28;20039;-76
2022/10/06 06:27:01;;;;;;;12.40;1.92;;;10.70;64.40;;;;;;5025559;28;20033;-78
2022/10/06 06:29:27;;;;;;;12.25;2.60;;;10.70;64.40;;;;;;5029457;28;20370;-75
2022/10/06 06:31:53;;;;;;;10.75;2.53;;;10.80;64.60;;;;;;5043828;28;20040;-74
2022/10/06 06:34:19;;;;;;;7.97;1.88;;;10.80;64.60;;;;;;5041726;28;20034;-74
2022/10/06 06:36:52;;;;;;;8.73;1.95;;;10.80;64.70;;;;;;5040459;28;20061;-75
2022/10/06 06:39:20;;;;;;;9.40;2.67;;;10.90;64.80;;;;;;5060524;28;20037;-75
2022/10/06 06:41:48;;;;;;;5.63;1.80;;;10.90;64.80;;;;;;5043375;28;20051;-75
2022/10/06 06:44:46;;;;;;;11.38;2.13;;;10.90;64.90;;;;;;5028973;28;20044;-76
2022/10/06 06:47:26;;;;;;;11.27;2.50;;;10.90;64.80;;;;;;5044763;28;20512;-76
2022/10/06 06:49:52;;;;;;;8.32;1.98;;;10.90;64.90;;;;;;5045604;28;20013;-75
2022/10/06 06:52:19;;;;;;;11.00;2.20;;;11.00;65.10;;;;;;5044238;28;20098;-77
2022/10/06 06:54:47;;;;;;;10.95;2.15;;;11.10;65.20;;;;;;5044992;28;20450;-77
2022/10/06 06:57:13;;;;;;;6.10;2.70;;;11.20;65.30;;;;;;5027423;28;20037;-77
2022/10/06 06:59:39;;;;;;;9.88;2.22;;;11.20;65.20;;;;;;5027238;28;20029;-76
2022/10/06 07:02:10;;;;;;;12.52;2.65;;;11.30;65.40;;;;;;5053444;28;20025;-76
2022/10/06 07:04:39;;;;;;;13.90;2.33;;;11.30;65.30;;;;;;5050761;28;20173;-77
2022/10/06 07:07:09;;;;;;;6.45;2.40;;;11.40;65.40;;;;;;5049439;28;20029;-76
2022/10/06 07:09:37;;;;;;;9.15;2.80;;;11.50;65.50;;;;;;5050328;28;20033;-76
2022/10/06 07:12:10;;;;;;;9.35;2.22;;;11.50;65.40;;;;;;5049601;28;20032;-75
2022/10/06 07:25:05;;;;;;;12.70;2.80;;;11.60;65.50;;;;;;5028215;28;20554;-76
2022/10/06 07:25:38;;;;;;;13.38;2.78;;;11.90;65.70;;;;;;5048782;28;20025;-75
2022/10/06 07:28:11;;;;;;;13.18;1.92;;;12.00;65.70;;;;;;5053220;28;20513;-76
2022/10/06 07:30:39;;;;;;;16.42;2.63;;;12.00;65.70;;;;;;5047643;28;20404;-76
2022/10/06 07:33:18;;;;;;;9.80;2.15;;;12.10;65.80;;;;;;5028540;28;20489;-76
2022/10/06 07:35:45;;;;;;;11.50;3.10;;;12.20;65.80;;;;;;5058514;28;20041;-76
2022/10/06 07:38:13;;;;;;;13.77;2.78;;;12.30;65.90;;;;;;5005619;28;20056;-75
2022/10/06 07:40:43;;;;;;;10.15;2.55;;;12.40;65.90;;;;;;5048614;28;20045;-79
2022/10/06 07:43:09;;;;;;;12.55;3.83;;;12.40;65.80;;;;;;5056085;28;20033;-75
2022/10/06 07:45:41;;;;;;;13.35;2.88;;;12.60;66.00;;;;;;5060240;28;20303;-74
2022/10/06 07:48:13;;;;;;;13.98;2.35;;;12.70;66.00;;;;;;5047830;28;20028;-74
2022/10/06 07:50:42;;;;;;;12.18;2.88;;;12.70;65.90;;;;;;5049123;28;20058;-76
2022/10/06 07:53:08;;;;;;;13.13;2.78;;;12.80;66.00;;;;;;5048721;28;20440;-76
2022/10/06 07:55:39;;;;;;;10.50;2.40;;;12.80;65.90;;;;;;5049255;28;20049;-75
2022/10/06 07:58:19;;;;;;;11.23;2.55;;;12.90;65.90;;;;;;5047541;28;20029;-76
2022/10/06 08:00:51;;;;;;;10.02;2.00;;;13.00;66.50;;;;;;5047898;28;20070;-77
2022/10/06 08:03:18;;;;;;;16.42;3.17;;;13.10;66.00;;;;;;5035856;28;20079;-77
2022/10/06 08:05:55;;;;;;;9.95;2.67;;;13.10;65.90;;;;;;5048453;28;20087;-76
2022/10/06 08:08:21;;;;;;;14.18;4.43;;;13.20;66.00;;;;;;5049905;28;20033;-77
2022/10/06 08:10:53;;;;;;;11.63;2.55;;;13.30;66.00;;;;;;5046578;28;20041;-78
2022/10/06 08:13:19;;;;;;;16.25;5.32;;;13.40;66.10;;;;;;5028318;28;20498;-77
2022/10/06 08:15:46;;;;;;;17.88;3.50;;;13.40;66.10;;;;;;5050180;28;20037;-77
2022/10/06 08:18:12;;;;;;;14.02;2.65;;;13.50;66.70;;;;;;5055919;28;20051;-77
2022/10/06 08:20:39;;;;;;;7.38;2.42;;;13.70;67.30;;;;;;5047032;28;20064;-78
2022/10/06 08:23:07;;;;;;;15.48;2.80;;;13.90;67.70;;;;;;5050874;28;20035;-76
2022/10/06 08:25:37;;;;;;;16.60;2.05;;;14.20;68.10;;;;;;5047861;28;20036;-76
2022/10/06 08:28:05;;;;;;;13.98;3.40;;;14.40;68.20;;;;;;5063180;28;20039;-76
2022/10/06 08:30:33;;;;;;;12.80;3.08;;;14.60;68.30;;;;;;5047079;28;20529;-76
2022/10/06 08:32:59;;;;;;;9.93;2.72;;;14.80;68.40;;;;;;5053605;28;20037;-79
2022/10/06 08:35:25;;;;;;;15.10;2.50;;;15.00;68.60;;;;;;5049520;28;20063;-77
2022/10/06 08:37:52;;;;;;;11.35;3.63;;;15.20;68.70;;;;;;5049315;28;20029;-76
2022/10/06 08:40:18;;;;;;;10.98;3.83;;;15.40;68.90;;;;;;5051874;28;20029;-77
2022/10/06 08:42:52;;;;;;;8.80;3.65;;;15.50;68.80;;;;;;5048609;28;20098;-77
2022/10/06 08:45:23;;;;;;;12.73;4.22;;;15.60;68.70;;;;;;5049823;28;20028;-77
2022/10/06 08:47:53;;;;;;;8.73;3.33;;;15.80;68.80;;;;;;5052754;28;20106;-78
2022/10/06 08:50:21;;;;;;;10.13;3.90;;;15.90;68.70;;;;;;5040983;28;20398;-76
2022/10/06 08:52:54;;;;;;;10.77;2.20;;;16.00;68.50;;;;;;5051710;28;20056;-78
2022/10/06 08:55:52;;;;;;;9.93;2.85;;;16.10;68.50;;;;;;5052062;28;20092;-76
2022/10/06 08:58:34;;;;;;;23.80;3.40;;;16.20;68.40;;;;;;5047203;28;20131;-77
2022/10/06 09:01:19;;;;;;;11.55;2.70;;;16.40;68.40;;;;;;5048561;28;20025;-76
2022/10/06 09:03:47;;;;;;;8.57;2.40;;;16.40;68.30;;;;;;5056470;28;20546;-78
2022/10/06 09:06:48;;;;;;;11.57;3.00;;;16.50;68.20;;;;;;5049235;28;20036;-78
2022/10/06 09:09:50;;;;;;;10.05;1.90;;;16.70;68.20;;;;;;5046073;28;20438;-78
2022/10/06 09:12:31;;;;;;;9.40;3.03;;;16.80;68.00;;;;;;5059504;28;20468;-78
2022/10/06 09:15:15;;;;;;;7.60;2.45;;;16.80;67.80;;;;;;5053781;28;20260;-77
2022/10/06 09:17:49;;;;;;;9.88;2.33;;;16.90;67.80;;;;;;5046029;28;20305;-78
2022/10/06 09:20:19;;;;;;;8.82;2.83;;;17.00;67.70;;;;;;5042894;28;20052;-81
2022/10/06 09:22:49;;;;;;;8.13;1.85;;;17.10;67.70;;;;;;5048574;28;20511;-81
2022/10/06 09:25:18;;;;;;;10.45;2.38;;;17.10;67.60;;;;;;5057234;28;20024;-76
2022/10/06 09:27:54;;;;;;;13.02;3.08;;;17.20;67.50;;;;;;5052088;28;20036;-78
2022/10/06 09:30:20;;;;;;;10.13;2.15;;;17.20;67.30;;;;;;5048745;28;20036;-78
2022/10/06 09:32:50;;;;;;;10.98;2.08;;;17.30;67.20;;;;;;5035832;28;20045;-77
2022/10/06 09:35:23;;;;;;;11.75;2.55;;;17.30;67.00;;;;;;5048485;28;20052;-76
2022/10/06 09:38:10;;;;;;;7.97;2.45;;;17.20;66.80;;;;;;5051346;28;20029;-80
2022/10/06 09:40:54;;;;;;;9.55;2.28;;;17.20;66.70;;;;;;5046144;28;20032;-82
2022/10/06 09:43:30;;;;;;;12.43;2.67;;;17.20;66.80;;;;;;5039057;28;20032;-77
2022/10/06 09:46:25;;;;;;;13.00;2.88;;;17.20;66.70;;;;;;5061584;28;20040;-78
2022/10/06 09:49:06;;;;;;;15.05;3.08;;;17.20;66.70;;;;;;5036570;28;20050;-77
2022/10/06 09:51:36;;;;;;;11.15;2.67;;;17.20;66.80;;;;;;5062695;28;20444;-78
2022/10/06 09:54:15;;;;;;;12.18;3.40;;;17.20;66.80;;;;;;5057188;28;20024;-78
2022/10/06 09:56:43;;;;;;;11.75;3.90;;;17.20;66.80;;;;;;5049982;28;20056;-82
2022/10/06 09:59:32;;;;;;;9.52;2.38;;;17.20;66.80;;;;;;5040612;28;20056;-81
2022/10/06 10:02:00;;;;;;;12.35;2.10;;;17.30;67.00;;;;;;5039250;28;20033;-80
2022/10/06 10:04:39;;;;;;;12.98;3.00;;;17.50;67.30;;;;;;5047841;28;20110;-78
2022/10/06 10:07:28;;;;;;;7.40;2.13;;;17.70;67.90;;;;;;5050171;28;20052;-78
2022/10/06 10:10:22;;;;;;;7.50;2.90;;;18.00;67.20;;;;;;5047897;28;20032;-79
2022/10/06 10:12:53;;;;;;;10.48;3.75;;;18.30;66.90;;;;;;5032684;28;20043;-78
2022/10/06 10:15:19;;;;;;;10.77;2.67;;;18.50;66.70;;;;;;5055514;28;20032;-83
2022/10/06 10:18:01;;;;;;;9.05;2.28;;;18.60;66.40;;;;;;5047139;28;20098;-83
2022/10/06 10:20:35;;;;;;;9.68;2.30;;;18.70;66.30;;;;;;5036111;28;20037;-79
2022/10/06 10:23:20;;;;;;;12.65;2.97;;;18.80;66.20;;;;;;5046835;28;20074;-80
2022/10/06 10:26:34;;;;;;;10.63;2.17;;;18.90;66.20;;;;;;5048779;28;20033;-84
2022/10/06 10:29:06;;;;;;;;;;;18.90;66.00;;;;;;5048616;28;20032;-79
2022/10/06 10:32:11;;;;;;;8.90;2.22;;;19.00;66.20;;;;;;5055333;28;20374;-78
2022/10/06 10:35:00;;;;;;;7.60;2.38;;;19.00;66.00;;;;;;5039411;28;20461;-82
2022/10/06 10:37:59;;;;;;;4.50;1.67;;;19.10;66.10;;;;;;5041540;28;20055;-79
2022/10/06 10:40:31;;;;;;;14.45;3.33;;;19.20;66.00;;;;;;5031444;28;20052;-81
2022/10/06 10:43:23;;;;;;;7.13;2.10;;;19.40;66.00;;;;;;5046355;28;20036;-76
2022/10/06 10:45:51;;;;;;;9.30;2.88;;;19.50;66.00;;;;;;5052146;28;20501;-80
2022/10/06 10:48:32;;;;;;;9.30;2.28;;;19.70;66.50;;;;;;5051702;28;20444;-78
2022/10/06 10:51:20;;;;;;;8.15;2.55;;;19.90;65.70;;;;;;5042094;28;20037;-79
2022/10/06 10:53:56;;;;;;;10.30;2.92;;;20.10;65.50;;;;;;5017077;28;20034;-75
2022/10/06 10:56:25;;;;;;;10.23;2.67;;;20.20;65.20;;;;;;5054957;28;20057;-78
2022/10/06 10:59:06;;;;;;;14.48;5.05;;;20.30;65.10;;;;;;5056926;28;20101;-77
2022/10/06 11:01:39;;;;;;;10.40;2.83;;;20.40;65.10;;;;;;5052415;28;20032;-78
2022/10/06 11:04:12;;;;;;;11.57;3.03;;;20.40;65.00;;;;;;5052681;28;20093;-79
2022/10/06 11:07:18;;;;;;;9.88;2.95;;;20.50;65.20;;;;;;5050008;28;20056;-80
2022/10/06 11:10:32;;;;;;;10.10;2.40;;;20.50;65.10;;;;;;5051501;28;20058;-79
2022/10/06 11:13:37;;;;;;;8.82;2.17;;;20.50;65.10;;;;;;5045341;28;20485;-77
2022/10/06 11:16:06;;;;;;;8.90;2.72;;;20.60;65.10;;;;;;5042777;28;20741;-77
2022/10/06 11:18:51;;;;;;;8.82;2.72;;;20.60;65.10;;;;;;5046935;28;20021;-78
2022/10/06 11:21:38;;;;;;;8.13;2.17;;;20.70;65.10;;;;;;5040283;28;20025;-81
2022/10/06 11:24:23;;;;;;;8.30;2.45;;;20.80;64.90;;;;;;5033865;28;20040;-78
2022/10/06 11:27:06;;;;;;;7.50;2.75;;;20.90;64.70;;;;;;5050720;28;20037;-77
2022/10/06 11:29:56;;;;;;;8.43;2.17;;;20.90;64.60;;;;;;5042878;28;20029;-79
2022/10/06 11:32:35;;;;;;;7.45;1.70;;;20.90;64.30;;;;;;5036098;28;20033;-79
2022/10/06 11:35:02;;;;;;;8.30;2.10;;;20.90;64.20;;;;;;5052265;28;20478;-77
2022/10/06 11:38:05;;;;;;;13.35;2.88;;;21.00;64.30;;;;;;5050705;28;20492;-77
2022/10/06 11:40:59;;;;;;;7.50;2.28;;;21.00;64.00;;;;;;5049755;28;20070;-88
2022/10/06 11:43:47;;;;;;;9.73;2.15;;;21.00;63.90;;;;;;5048813;28;20283;-86
2022/10/06 11:46:30;;;;;;;6.47;1.90;;;21.00;63.70;;;;;;5036770;28;20462;-83
2022/10/06 11:49:27;;;;;;;9.43;3.30;;;21.00;63.70;;;;;;5046635;28;20044;-89
2022/10/06 11:52:16;;;;;;;8.88;2.58;;;21.00;63.50;;;;;;5052292;28;20420;-82
2022/10/06 11:54:42;;;;;;;6.60;2.42;;;21.10;63.50;;;;;;5051492;28;20048;-84
2022/10/06 11:57:21;;;;;;;7.15;2.05;;;21.10;63.60;;;;;;5045043;28;20038;-80
2022/10/06 11:59:53;;;;;;;9.75;2.42;;;21.10;63.30;;;;;;5052452;28;20058;-77
2022/10/06 12:02:31;;;;;;;10.25;2.22;;;21.20;64.00;;;;;;5048279;28;20036;-78
2022/10/06 12:05:19;;;;;;;7.45;1.98;;;21.20;63.10;;;;;;5048399;28;20017;-79
2022/10/06 12:07:51;;;;;;;7.55;1.85;;;21.30;63.00;;;;;;5044899;28;20484;-77
2022/10/06 12:10:27;;;;;;;8.38;2.15;;;21.30;62.80;;;;;;5050357;28;20021;-77
2022/10/06 12:13:18;;;;;;;8.05;2.92;;;21.40;62.60;;;;;;5047731;28;20037;-78
2022/10/06 12:16:09;;;;;;;6.90;2.05;;;21.60;62.40;;;;;;5045800;28;20473;-77
2022/10/06 12:18:48;;;;;;;5.80;1.90;;;21.80;62.40;;;;;;5038051;28;20455;-77
2022/10/06 12:21:31;;;;;;;8.95;2.35;;;21.90;62.10;;;;;;5049082;28;20043;-77
2022/10/06 12:24:19;;;;;;;5.07;1.88;;;22.10;62.10;;;;;;5047370;28;20039;-79
2022/10/06 12:27:21;;;;;;;7.70;1.75;;;22.30;61.80;;;;;;5046056;28;20045;-83
2022/10/06 12:29:54;;;;;;;8.18;2.22;;;22.50;61.70;;;;;;5049884;28;20021;-77
2022/10/06 12:32:39;;;;;;;9.13;2.83;;;22.60;61.60;;;;;;5040783;28;20083;-80
2022/10/06 12:35:06;;;;;;;7.25;2.63;;;22.70;61.20;;;;;;5051386;28;20600;-79
2022/10/06 12:37:51;;;;;;;8.55;2.47;;;22.80;61.40;;;;;;5052249;28;20033;-77
2022/10/06 12:40:50;;;;;;;6.68;1.30;;;22.90;61.10;;;;;;5047988;28;20063;-78
2022/10/06 12:43:21;;;;;;;8.48;2.03;;;23.00;61.00;;;;;;5043948;28;20098;-79
2022/10/06 12:46:00;;;;;;;6.07;1.88;;;23.00;61.00;;;;;;5039535;28;20033;-81
2022/10/06 12:48:50;;;;;;;8.32;2.38;;;23.10;61.10;;;;;;5044842;28;20399;-79
2022/10/06 12:51:37;;;;;;;6.05;2.38;;;23.20;60.70;;;;;;5044692;28;20029;-78
2022/10/06 12:54:03;;;;;;;6.90;2.30;;;23.40;60.90;;;;;;5047890;28;20049;-79
2022/10/06 12:56:42;;;;;;;7.60;2.03;;;23.60;60.80;;;;;;5043192;28;20049;-77
2022/10/06 12:59:34;;;;;;;9.85;2.72;;;23.80;60.70;;;;;;5035920;28;20142;-77
2022/10/06 13:02:06;;;;;;;12.38;3.28;;;23.90;60.50;;;;;;5046766;28;20025;-81
2022/10/06 13:04:35;;;;;;;;;;;24.00;60.40;;;;;;5048894;28;20037;-78
2022/10/06 13:07:04;;;;;;;6.70;1.55;;;24.00;60.30;;;;;;5046527;28;19908;-77
2022/10/06 13:09:30;;;;;;;6.53;1.42;;;24.10;60.60;;;;;;5054281;28;20044;-79
2022/10/06 13:12:11;;;;;;;7.10;2.30;;;24.20;60.50;;;;;;5048029;28;20037;-80
2022/10/06 13:14:37;;;;;;;7.25;1.95;;;24.20;60.30;;;;;;5055007;28;20021;-79
2022/10/06 13:17:04;;;;;;;7.93;1.77;;;24.40;60.50;;;;;;5046772;28;20045;-77
2022/10/06 13:19:31;;;;;;;8.57;1.85;;;24.50;60.40;;;;;;5041487;28;20101;-78
2022/10/06 13:22:01;;;;;;;12.05;2.83;;;24.50;60.00;;;;;;5052623;28;20455;-80
2022/10/06 13:24:29;;;;;;;7.57;1.73;;;24.50;59.60;;;;;;5043325;28;20499;-79